Time;durP1;ratioP1;P1;durP2;ratioP2;P2;SDS_P1;SDS_P2;PMS_P1;PMS_P2;Temp;Humidity;BMP_temperature;BMP_pressure;BME280_temperature;BME280_humidity;BME280_pressure;Samples;Min_cycle;Max_cycle;Signal;HPM_P1;HPM_P2
2022/07/20 00:00:39;;;;;;;5.03;3.38;;;24.20;65.70;;;;;;5043985;28;20068;-58
2022/07/20 00:03:11;;;;;;;5.15;3.05;;;24.30;66.00;;;;;;5013542;28;20041;-54
2022/07/20 00:05:37;;;;;;;4.95;3.10;;;24.20;65.60;;;;;;5048773;28;20095;-54
2022/07/20 00:08:04;;;;;;;7.28;3.67;;;24.20;65.80;;;;;;5046620;28;20045;-52
2022/07/20 00:13:16;;;;;;;4.07;3.17;;;24.10;66.20;;;;;;5048220;28;20391;-53
2022/07/20 00:15:43;;;;;;;4.28;3.55;;;24.10;65.60;;;;;;5045257;28;20048;-54
2022/07/20 00:18:09;;;;;;;5.68;3.10;;;24.10;66.40;;;;;;5041368;28;20048;-55
2022/07/20 00:20:35;;;;;;;5.90;3.13;;;24.00;65.90;;;;;;5047613;28;20070;-55
2022/07/20 00:23:02;;;;;;;8.73;3.38;;;23.90;65.90;;;;;;5048448;28;20080;-57
2022/07/20 00:25:28;;;;;;;6.45;3.20;;;23.90;65.70;;;;;;5052352;28;20064;-55
2022/07/20 00:27:53;;;;;;;5.47;2.90;;;23.90;65.50;;;;;;5047583;28;20045;-54
2022/07/20 00:30:20;;;;;;;6.47;3.00;;;23.80;65.00;;;;;;5029923;28;20051;-56
2022/07/20 00:32:46;;;;;;;8.50;4.03;;;23.80;65.50;;;;;;5012134;23;20416;-58
2022/07/20 00:35:14;;;;;;;6.93;3.75;;;23.80;65.80;;;;;;4991794;28;20046;-57
2022/07/20 00:37:41;;;;;;;5.28;2.95;;;23.80;65.50;;;;;;5004877;28;20092;-60
2022/07/20 00:40:08;;;;;;;5.80;3.42;;;23.70;64.80;;;;;;5010878;28;20040;-60
2022/07/20 00:42:34;;;;;;;10.63;3.30;;;23.70;64.40;;;;;;4947300;28;20055;-60
2022/07/20 00:45:01;;;;;;;5.60;3.30;;;23.70;64.20;;;;;;4949894;28;20054;-59
2022/07/20 00:47:27;;;;;;;4.65;3.10;;;23.70;64.40;;;;;;4964113;28;20124;-58
2022/07/20 00:49:52;;;;;;;4.97;3.33;;;23.70;64.80;;;;;;4961909;28;20038;-58
2022/07/20 00:52:18;;;;;;;4.90;3.30;;;23.60;64.50;;;;;;4949640;28;20387;-59
2022/07/20 00:54:48;;;;;;;5.55;3.25;;;23.60;64.40;;;;;;4943642;29;20489;-59
2022/07/20 00:57:15;;;;;;;6.85;3.72;;;23.60;65.00;;;;;;5015055;28;20050;-59
2022/07/20 00:59:41;;;;;;;6.45;2.95;;;23.60;65.20;;;;;;4959806;28;20039;-59
2022/07/20 01:02:06;;;;;;;8.93;3.53;;;23.50;65.20;;;;;;4957530;28;20039;-59
2022/07/20 01:04:32;;;;;;;5.57;2.90;;;23.50;65.10;;;;;;4955029;28;20043;-59
2022/07/20 01:06:58;;;;;;;7.47;3.65;;;23.40;65.10;;;;;;4932467;29;20040;-59
2022/07/20 01:09:24;;;;;;;6.95;3.28;;;23.40;65.70;;;;;;4952202;28;20039;-59
2022/07/20 01:11:50;;;;;;;5.75;3.05;;;23.40;65.60;;;;;;4949897;28;20046;-58
2022/07/20 01:14:16;;;;;;;11.18;4.10;;;23.40;65.50;;;;;;4940560;28;20049;-59
2022/07/20 01:16:42;;;;;;;3.50;3.15;;;23.40;65.20;;;;;;4950753;28;20039;-59
2022/07/20 01:19:08;;;;;;;6.55;4.15;;;23.30;65.40;;;;;;4965054;28;20502;-59
2022/07/20 01:21:40;;;;;;;8.02;3.80;;;23.30;65.30;;;;;;4950539;28;20449;-59
2022/07/20 01:24:09;;;;;;;6.80;3.50;;;23.30;65.70;;;;;;4976663;28;20327;-59
2022/07/20 01:26:39;;;;;;;8.38;3.60;;;23.20;65.60;;;;;;4949652;28;20117;-58
2022/07/20 01:29:05;;;;;;;6.35;3.20;;;23.20;65.40;;;;;;4948735;28;20032;-59
2022/07/20 01:31:31;;;;;;;5.38;3.60;;;23.20;65.60;;;;;;4949831;28;20107;-59
2022/07/20 01:33:57;;;;;;;4.32;3.40;;;23.10;65.80;;;;;;4973780;28;20414;-59
2022/07/20 01:36:23;;;;;;;4.70;3.30;;;23.10;65.80;;;;;;4965103;28;20045;-59
2022/07/20 01:38:48;;;;;;;6.95;3.60;;;23.10;65.90;;;;;;4991414;28;20035;-59
2022/07/20 01:41:14;;;;;;;9.02;3.45;;;23.00;65.80;;;;;;4957622;28;20058;-59
2022/07/20 01:43:40;;;;;;;4.07;3.60;;;23.00;66.80;;;;;;4947930;28;20121;-59
2022/07/20 01:46:06;;;;;;;4.78;3.50;;;23.00;66.40;;;;;;4950123;28;20122;-59
2022/07/20 01:48:31;;;;;;;4.38;3.13;;;23.00;66.00;;;;;;4957033;28;20051;-57
2022/07/20 01:50:57;;;;;;;5.05;3.25;;;22.90;66.00;;;;;;4971159;28;20130;-59
2022/07/20 01:53:23;;;;;;;7.95;3.63;;;22.90;66.20;;;;;;4967953;28;20122;-59
2022/07/20 01:55:50;;;;;;;5.43;3.65;;;22.90;66.40;;;;;;4978255;28;20408;-58
2022/07/20 01:58:16;;;;;;;7.60;3.72;;;22.80;66.60;;;;;;5000320;28;20057;-59
2022/07/20 02:00:41;;;;;;;4.95;3.35;;;22.80;67.00;;;;;;5059180;28;20047;-59
2022/07/20 02:03:07;;;;;;;5.68;3.10;;;22.70;67.00;;;;;;5003914;28;20050;-59
2022/07/20 02:05:33;;;;;;;7.60;4.28;;;22.70;67.60;;;;;;4983891;28;20043;-59
2022/07/20 02:07:59;;;;;;;6.65;3.42;;;22.70;68.40;;;;;;4978430;28;20516;-58
2022/07/20 02:10:24;;;;;;;5.07;3.20;;;22.70;68.40;;;;;;4953821;28;20282;-59
2022/07/20 02:12:50;;;;;;;8.02;3.70;;;22.70;68.10;;;;;;4958525;28;20039;-59
2022/07/20 02:18:11;;;;;;;6.95;3.90;;;22.50;68.30;;;;;;4985869;28;20072;-59
2022/07/20 02:20:38;;;;;;;10.07;4.20;;;22.50;68.10;;;;;;4950532;28;20047;-59
2022/07/20 02:23:06;;;;;;;4.15;3.47;;;22.50;68.00;;;;;;4983537;28;20062;-58
2022/07/20 02:25:33;;;;;;;6.82;3.70;;;22.50;68.30;;;;;;4963774;28;20029;-59
2022/07/20 02:27:58;;;;;;;8.80;3.72;;;22.50;68.10;;;;;;4957447;28;20443;-57
2022/07/20 02:30:24;;;;;;;6.82;3.80;;;22.40;67.90;;;;;;4954468;28;20035;-60
2022/07/20 02:32:50;;;;;;;6.60;3.78;;;22.40;67.80;;;;;;4970480;28;20039;-59
2022/07/20 02:35:16;;;;;;;7.18;3.50;;;22.40;67.70;;;;;;4944866;28;20043;-61
2022/07/20 02:37:42;;;;;;;9.10;4.00;;;22.40;67.60;;;;;;4978010;28;20497;-61
2022/07/20 02:40:08;;;;;;;6.57;3.78;;;22.40;67.90;;;;;;4949526;28;20116;-59
2022/07/20 02:42:34;;;;;;;6.90;3.63;;;22.40;68.00;;;;;;4976918;28;20049;-62
2022/07/20 02:45:00;;;;;;;7.13;3.33;;;22.30;68.00;;;;;;4953038;28;20039;-62
2022/07/20 02:47:26;;;;;;;4.43;3.33;;;22.30;67.90;;;;;;4952957;28;20077;-62
2022/07/20 02:49:52;;;;;;;6.38;3.50;;;22.30;68.00;;;;;;4987853;28;20160;-59
2022/07/20 02:52:17;;;;;;;5.07;3.70;;;22.30;68.70;;;;;;4977557;28;20055;-60
2022/07/20 02:54:43;;;;;;;7.45;3.53;;;22.30;67.90;;;;;;4938524;28;20042;-61
2022/07/20 02:57:09;;;;;;;7.32;3.80;;;22.30;68.10;;;;;;4954324;28;20039;-57
2022/07/20 02:59:34;;;;;;;8.43;4.03;;;22.20;67.80;;;;;;4950475;28;20114;-60
2022/07/20 03:02:00;;;;;;;7.68;3.90;;;22.20;67.80;;;;;;4933690;29;20496;-59
2022/07/20 03:04:26;;;;;;;4.78;3.58;;;22.20;67.90;;;;;;5024455;28;20063;-59
2022/07/20 03:06:52;;;;;;;5.28;3.33;;;22.20;68.10;;;;;;4951209;28;20556;-61
2022/07/20 03:09:17;;;;;;;6.68;3.70;;;22.20;68.00;;;;;;4964238;28;20047;-60
2022/07/20 03:11:43;;;;;;;8.15;4.18;;;22.20;67.90;;;;;;4948641;28;20043;-61
2022/07/20 03:14:08;;;;;;;8.00;3.92;;;22.20;68.00;;;;;;4946802;28;20120;-57
2022/07/20 03:16:34;;;;;;;8.20;4.00;;;22.20;68.70;;;;;;4936773;28;20054;-58
2022/07/20 03:19:00;;;;;;;8.02;3.88;;;22.20;68.60;;;;;;4954975;28;20290;-60
2022/07/20 03:21:26;;;;;;;5.63;3.63;;;22.10;68.40;;;;;;4952142;28;20046;-57
2022/07/20 03:23:52;;;;;;;5.10;3.35;;;22.10;69.00;;;;;;4948253;28;20047;-61
2022/07/20 03:26:18;;;;;;;10.05;4.65;;;22.00;69.10;;;;;;4948030;28;20525;-57
2022/07/20 03:28:44;;;;;;;4.85;3.67;;;22.00;68.60;;;;;;4947770;28;20043;-58
2022/07/20 03:31:11;;;;;;;7.03;4.65;;;22.00;69.80;;;;;;4949009;28;20489;-60
2022/07/20 03:33:37;;;;;;;6.80;3.72;;;22.00;69.70;;;;;;4947808;28;20723;-56
2022/07/20 03:36:03;;;;;;;5.80;3.53;;;22.00;69.30;;;;;;4968196;28;20516;-61
2022/07/20 03:38:29;;;;;;;7.00;3.42;;;21.90;69.30;;;;;;4936098;28;20039;-58
2022/07/20 03:40:55;;;;;;;4.68;3.15;;;21.90;69.00;;;;;;4948951;28;20089;-57
2022/07/20 03:43:25;;;;;;;5.82;3.40;;;21.90;68.80;;;;;;4950474;28;20043;-59
2022/07/20 03:45:51;;;;;;;4.70;3.40;;;21.90;68.70;;;;;;4952879;28;20051;-60
2022/07/20 03:48:17;;;;;;;9.25;3.35;;;21.90;68.90;;;;;;4963369;28;20444;-58
2022/07/20 03:50:44;;;;;;;5.07;3.80;;;21.90;69.10;;;;;;4950958;28;20035;-58
2022/07/20 03:53:10;;;;;;;14.45;4.32;;;21.90;69.60;;;;;;4968994;28;20039;-59
2022/07/20 03:55:36;;;;;;;12.75;4.40;;;21.90;69.10;;;;;;4934281;28;20413;-56
2022/07/20 03:58:01;;;;;;;6.55;4.45;;;21.90;68.60;;;;;;4958473;28;20204;-57
2022/07/20 04:00:27;;;;;;;6.78;3.85;;;21.90;68.30;;;;;;4949149;28;20073;-58
2022/07/20 04:02:53;;;;;;;10.73;4.28;;;21.90;68.80;;;;;;4953205;28;20031;-59
2022/07/20 04:05:19;;;;;;;4.55;3.50;;;21.90;68.90;;;;;;4951918;28;20044;-57
2022/07/20 04:07:45;;;;;;;8.77;3.88;;;21.90;68.70;;;;;;4944909;28;20049;-59
2022/07/20 04:10:11;;;;;;;7.43;3.60;;;22.00;68.50;;;;;;4948714;28;20430;-57
2022/07/20 04:12:37;;;;;;;8.43;4.47;;;22.00;69.30;;;;;;4952108;28;20043;-59
2022/07/20 04:15:03;;;;;;;7.13;4.15;;;21.90;69.20;;;;;;4928560;28;20109;-56
2022/07/20 04:17:29;;;;;;;7.47;3.50;;;22.00;69.30;;;;;;4980491;28;20044;-57
2022/07/20 04:19:55;;;;;;;6.15;3.67;;;22.00;69.10;;;;;;4948416;28;20073;-55
2022/07/20 04:22:20;;;;;;;6.03;3.63;;;22.00;68.60;;;;;;4971677;28;20047;-58
2022/07/20 04:24:46;;;;;;;5.47;3.42;;;22.00;68.50;;;;;;5034604;28;20066;-60
2022/07/20 04:27:12;;;;;;;6.47;4.32;;;22.10;68.30;;;;;;4931622;29;20525;-60
2022/07/20 04:29:38;;;;;;;6.20;4.05;;;22.10;68.20;;;;;;4962911;28;20038;-60
2022/07/20 04:32:06;;;;;;;10.77;4.20;;;22.20;68.20;;;;;;4943868;28;20440;-61
2022/07/20 04:34:32;;;;;;;6.35;3.88;;;22.20;68.80;;;;;;4966555;28;20302;-60
2022/07/20 04:36:58;;;;;;;7.25;3.72;;;22.20;68.50;;;;;;4949545;28;20062;-59
2022/07/20 04:39:24;;;;;;;5.85;3.78;;;22.20;69.00;;;;;;4949133;28;20545;-58
2022/07/20 04:41:50;;;;;;;10.43;3.97;;;22.20;69.30;;;;;;5032513;28;20452;-58
2022/07/20 04:44:16;;;;;;;7.20;4.10;;;22.20;68.90;;;;;;4947898;28;20047;-61
2022/07/20 04:46:41;;;;;;;7.25;3.70;;;22.30;68.80;;;;;;4946654;28;20054;-57
2022/07/20 04:49:07;;;;;;;5.95;3.33;;;22.30;68.90;;;;;;4934271;28;20044;-57
2022/07/20 04:51:34;;;;;;;8.32;3.83;;;22.30;68.90;;;;;;4947288;28;20038;-61
2022/07/20 04:54:00;;;;;;;7.68;4.18;;;22.40;68.90;;;;;;4972252;28;20039;-57
2022/07/20 04:56:25;;;;;;;7.97;3.63;;;22.40;68.50;;;;;;4963623;28;20459;-61
2022/07/20 04:58:52;;;;;;;7.55;3.28;;;22.50;68.20;;;;;;4947818;28;20035;-60
2022/07/20 05:01:20;;;;;;;6.50;3.60;;;22.50;68.10;;;;;;4952379;28;20039;-60
2022/07/20 05:03:45;;;;;;;7.15;4.13;;;22.60;67.90;;;;;;4980448;28;20096;-61
2022/07/20 05:06:11;;;;;;;4.32;3.60;;;22.60;68.00;;;;;;4945856;28;20505;-58
2022/07/20 05:08:38;;;;;;;5.32;3.42;;;22.70;67.60;;;;;;4931516;28;20415;-59
2022/07/20 05:11:04;;;;;;;7.95;4.00;;;22.80;67.60;;;;;;4969577;28;20039;-60
2022/07/20 05:13:29;;;;;;;8.57;3.60;;;22.80;67.60;;;;;;4984512;28;20399;-57
2022/07/20 05:15:55;;;;;;;4.85;3.67;;;22.80;67.60;;;;;;4978369;28;20077;-58
2022/07/20 05:18:21;;;;;;;6.88;3.95;;;22.90;67.80;;;;;;4946472;28;20402;-61
2022/07/20 05:20:47;;;;;;;6.15;4.20;;;22.90;67.80;;;;;;4948376;28;20051;-61
2022/07/20 05:23:12;;;;;;;5.63;3.63;;;23.00;68.00;;;;;;4947936;28;20039;-60
2022/07/20 05:25:39;;;;;;;5.85;4.10;;;23.00;68.20;;;;;;4946391;28;20425;-58
2022/07/20 05:28:06;;;;;;;7.75;4.43;;;23.00;68.40;;;;;;4932507;28;20118;-59
2022/07/20 05:30:32;;;;;;;10.50;4.72;;;23.10;68.50;;;;;;4945389;28;20047;-56
2022/07/20 05:32:58;;;;;;;8.27;4.35;;;23.10;68.60;;;;;;4965073;28;20134;-59
2022/07/20 05:35:24;;;;;;;7.85;3.78;;;23.10;68.70;;;;;;4954407;28;20434;-60
2022/07/20 05:37:49;;;;;;;6.70;4.05;;;23.20;68.60;;;;;;4979647;28;20436;-60
2022/07/20 05:40:15;;;;;;;8.52;3.95;;;23.20;68.80;;;;;;4951493;28;20113;-60
2022/07/20 05:42:41;;;;;;;8.18;4.43;;;23.20;69.00;;;;;;4944802;28;20052;-57
2022/07/20 05:45:07;;;;;;;8.32;4.55;;;23.20;69.10;;;;;;4930178;28;20298;-58
2022/07/20 05:47:32;;;;;;;10.15;4.53;;;23.30;69.10;;;;;;4980665;28;20043;-55
2022/07/20 05:49:58;;;;;;;7.40;4.45;;;23.30;69.90;;;;;;4931893;28;20122;-58
2022/07/20 05:52:24;;;;;;;7.05;4.35;;;23.40;69.40;;;;;;4934357;28;20043;-61
2022/07/20 05:54:50;;;;;;;11.35;4.63;;;23.40;69.60;;;;;;4940667;28;20397;-60
2022/07/20 05:57:16;;;;;;;8.02;4.22;;;23.50;69.90;;;;;;4953832;28;20061;-61
2022/07/20 05:59:43;;;;;;;8.30;4.55;;;23.60;70.10;;;;;;4954210;28;20501;-60
2022/07/20 06:02:09;;;;;;;6.60;4.00;;;23.60;70.10;;;;;;4951958;28;20090;-59
2022/07/20 06:04:35;;;;;;;9.68;4.43;;;23.70;70.40;;;;;;4950518;28;20105;-60
2022/07/20 06:07:00;;;;;;;7.47;4.22;;;23.70;70.40;;;;;;5048554;28;20383;-58
2022/07/20 06:09:26;;;;;;;7.82;4.97;;;23.80;70.60;;;;;;4982148;28;20046;-60
2022/07/20 06:11:52;;;;;;;9.02;4.55;;;23.90;70.80;;;;;;4983959;28;20557;-60
2022/07/20 06:14:18;;;;;;;6.35;4.35;;;24.00;70.70;;;;;;4952682;28;20054;-59
2022/07/20 06:16:44;;;;;;;9.48;5.38;;;24.00;70.70;;;;;;4957259;28;20043;-59
2022/07/20 06:19:09;;;;;;;11.00;4.55;;;24.10;71.00;;;;;;4948470;28;20115;-61
2022/07/20 06:21:35;;;;;;;8.02;4.28;;;24.20;71.30;;;;;;4921642;28;20142;-61
2022/07/20 06:24:01;;;;;;;9.32;4.10;;;24.20;71.80;;;;;;4948105;28;20040;-63
2022/07/20 06:26:26;;;;;;;6.90;4.38;;;24.30;72.00;;;;;;4949309;28;20047;-62
2022/07/20 06:28:52;;;;;;;6.82;4.53;;;24.40;72.30;;;;;;4957034;28;20055;-62
2022/07/20 06:31:18;;;;;;;9.80;5.55;;;24.50;72.80;;;;;;4935503;28;20043;-62
2022/07/20 06:33:43;;;;;;;13.82;6.05;;;24.60;73.10;;;;;;5006064;23;20042;-59
2022/07/20 06:36:09;;;;;;;7.28;5.28;;;24.60;73.70;;;;;;4987160;28;20035;-59
2022/07/20 06:38:35;;;;;;;9.43;6.45;;;24.80;74.10;;;;;;4953913;28;20488;-60
2022/07/20 06:41:01;;;;;;;12.73;7.45;;;24.80;75.00;;;;;;4970079;28;20282;-61
2022/07/20 06:43:27;;;;;;;8.23;6.50;;;24.90;75.40;;;;;;4980985;28;20090;-61
2022/07/20 06:45:53;;;;;;;10.52;6.32;;;25.00;75.50;;;;;;4973476;28;20082;-60
2022/07/20 06:48:19;;;;;;;10.88;7.28;;;25.10;76.00;;;;;;4979172;28;20046;-61
2022/07/20 06:50:45;;;;;;;13.70;7.97;;;25.20;76.40;;;;;;4976736;28;20184;-61
2022/07/20 06:53:12;;;;;;;15.73;8.93;;;25.30;77.00;;;;;;4971255;28;20304;-61
2022/07/20 06:55:37;;;;;;;13.63;8.82;;;25.30;77.80;;;;;;4971229;28;20046;-59
2022/07/20 06:58:03;;;;;;;14.55;8.73;;;25.30;78.40;;;;;;4988870;28;20480;-61
2022/07/20 07:00:29;;;;;;;14.85;9.20;;;25.40;79.20;;;;;;4987697;28;20096;-61
2022/07/20 07:02:55;;;;;;;14.80;9.55;;;25.40;80.40;;;;;;4971071;28;20038;-61
2022/07/20 07:05:22;;;;;;;17.23;11.13;;;25.50;80.40;;;;;;4971260;28;20038;-61
2022/07/20 07:07:48;;;;;;;15.10;10.70;;;25.50;81.10;;;;;;4972242;28;20459;-60
2022/07/20 07:10:14;;;;;;;13.73;10.43;;;25.50;81.80;;;;;;4990519;28;20046;-61
2022/07/20 07:12:39;;;;;;;15.90;9.77;;;25.60;83.10;;;;;;4990586;28;20117;-60
2022/07/20 07:15:06;;;;;;;15.25;11.18;;;25.60;83.60;;;;;;4971712;28;20109;-61
2022/07/20 07:17:31;;;;;;;15.60;11.23;;;25.60;84.10;;;;;;4971198;28;20463;-60
2022/07/20 07:19:58;;;;;;;20.50;12.63;;;25.70;84.80;;;;;;4970943;28;20039;-60
2022/07/20 07:22:28;;;;;;;20.77;13.77;;;25.80;85.80;;;;;;4971656;28;20039;-60
2022/07/20 07:24:54;;;;;;;17.35;13.30;;;25.80;86.20;;;;;;4990126;28;20085;-60
2022/07/20 07:27:20;;;;;;;18.65;12.05;;;25.80;87.40;;;;;;4989428;28;20066;-61
2022/07/20 07:29:46;;;;;;;17.85;13.38;;;25.90;88.00;;;;;;4953539;28;20047;-61
2022/07/20 07:32:12;;;;;;;17.80;13.68;;;26.00;88.90;;;;;;4970695;28;20053;-61
2022/07/20 07:34:37;;;;;;;25.45;15.63;;;26.10;89.70;;;;;;4970923;28;20049;-60
2022/07/20 07:37:03;;;;;;;21.10;15.13;;;26.20;90.30;;;;;;4969335;28;20489;-59
2022/07/20 07:39:29;;;;;;;18.98;15.32;;;26.20;90.70;;;;;;4977185;28;20407;-60
2022/07/20 07:41:55;;;;;;;24.25;16.65;;;26.30;91.20;;;;;;4985257;28;20179;-61
2022/07/20 07:44:21;;;;;;;19.75;14.70;;;26.30;91.50;;;;;;4982886;28;20125;-60
2022/07/20 07:46:47;;;;;;;27.40;16.13;;;26.40;91.70;;;;;;4982918;28;20046;-61
2022/07/20 07:49:13;;;;;;;25.02;18.60;;;26.40;92.20;;;;;;4989746;28;20389;-60
2022/07/20 07:51:38;;;;;;;29.65;17.95;;;26.50;92.40;;;;;;4977720;28;20043;-61
2022/07/20 07:54:04;;;;;;;27.55;17.90;;;26.50;92.80;;;;;;4984973;28;20043;-60
2022/07/20 07:56:30;;;;;;;22.67;18.08;;;26.60;92.90;;;;;;4979491;28;20116;-60
2022/07/20 07:58:56;;;;;;;26.13;17.80;;;26.70;92.90;;;;;;4957689;28;20071;-59
2022/07/20 08:01:22;;;;;;;42.20;19.48;;;26.70;92.90;;;;;;4982616;28;20073;-59
2022/07/20 08:03:47;;;;;;;22.35;18.27;;;26.80;93.30;;;;;;4968815;28;20043;-59
2022/07/20 08:06:13;;;;;;;28.73;20.27;;;26.90;93.10;;;;;;4953058;28;20050;-61
2022/07/20 08:08:39;;;;;;;26.50;19.42;;;27.00;93.10;;;;;;4970066;28;20042;-60
2022/07/20 08:11:05;;;;;;;28.85;20.38;;;27.00;93.40;;;;;;5007574;28;20053;-61
2022/07/20 08:13:31;;;;;;;27.98;20.50;;;27.00;93.20;;;;;;4989588;28;20046;-60
2022/07/20 08:15:56;;;;;;;25.58;20.73;;;26.90;93.10;;;;;;4989675;28;20117;-61
2022/07/20 08:18:22;;;;;;;25.65;19.90;;;26.90;93.40;;;;;;4988586;28;20076;-61
2022/07/20 08:20:48;;;;;;;26.30;20.17;;;27.00;93.20;;;;;;4983551;28;20484;-61
2022/07/20 08:23:14;;;;;;;28.65;20.23;;;27.10;93.10;;;;;;4984627;28;20045;-61
2022/07/20 08:25:40;;;;;;;30.40;20.98;;;27.10;92.80;;;;;;4952725;28;20456;-61
2022/07/20 08:28:17;;;;;;;27.88;21.08;;;26.90;93.00;;;;;;4970262;28;20039;-61
2022/07/20 08:30:44;;;;;;;31.65;22.25;;;27.00;93.00;;;;;;4973332;28;20427;-61
2022/07/20 08:33:10;;;;;;;34.17;22.55;;;27.10;93.00;;;;;;5002049;28;20032;-61
2022/07/20 08:35:36;;;;;;;27.30;21.88;;;27.20;93.00;;;;;;4974359;28;20039;-61
2022/07/20 08:38:03;;;;;;;37.83;22.98;;;27.10;92.80;;;;;;4983311;28;20061;-61
2022/07/20 08:40:30;;;;;;;30.27;22.38;;;27.20;92.90;;;;;;4981867;28;20078;-61
2022/07/20 08:42:56;;;;;;;32.10;23.40;;;27.10;93.00;;;;;;4989221;28;20046;-60
2022/07/20 08:45:23;;;;;;;30.48;22.48;;;27.30;93.00;;;;;;4989007;28;20095;-61
2022/07/20 08:47:50;;;;;;;29.35;22.63;;;27.50;93.30;;;;;;4989213;28;20041;-61
2022/07/20 08:50:24;;;;;;;29.02;24.08;;;27.60;92.90;;;;;;4987511;28;20054;-60
2022/07/20 08:52:50;;;;;;;34.10;24.08;;;27.60;93.00;;;;;;4970694;28;20042;-61
2022/07/20 08:55:16;;;;;;;29.35;22.83;;;27.70;93.00;;;;;;4973388;28;20348;-61
2022/07/20 08:57:42;;;;;;;28.08;22.20;;;27.70;92.90;;;;;;4969293;28;20401;-61
2022/07/20 09:00:09;;;;;;;37.58;22.65;;;27.70;92.50;;;;;;4968220;28;20390;-60
2022/07/20 09:02:52;;;;;;;31.10;22.25;;;27.60;92.30;;;;;;4969412;28;20038;-61
2022/07/20 09:05:20;;;;;;;30.52;21.40;;;27.50;92.20;;;;;;4969146;28;20334;-61
2022/07/20 09:07:55;;;;;;;30.85;20.80;;;27.50;91.80;;;;;;4968068;28;20449;-61
2022/07/20 09:10:24;;;;;;;30.90;22.70;;;27.40;91.90;;;;;;4976557;28;20042;-60
2022/07/20 09:13:00;;;;;;;31.73;21.85;;;27.40;92.00;;;;;;4971793;28;20114;-61
2022/07/20 09:15:38;;;;;;;25.98;20.65;;;27.40;92.10;;;;;;4970118;28;20519;-61
2022/07/20 09:18:30;;;;;;;24.92;19.15;;;27.50;91.90;;;;;;4980000;28;20123;-61
2022/07/20 09:21:10;;;;;;;23.83;20.02;;;27.50;91.90;;;;;;4982251;28;20044;-61
2022/07/20 09:23:41;;;;;;;30.85;19.15;;;27.60;91.70;;;;;;4967882;28;20552;-60
2022/07/20 09:26:10;;;;;;;25.33;17.73;;;27.50;91.00;;;;;;4977483;28;20053;-60
2022/07/20 09:29:04;;;;;;;21.60;17.42;;;27.60;91.30;;;;;;4981000;28;20117;-60
2022/07/20 09:31:35;;;;;;;18.60;14.80;;;27.80;90.30;;;;;;4965311;28;20058;-59
2022/07/20 09:34:02;;;;;;;25.50;15.82;;;27.90;89.20;;;;;;4971535;28;20035;-61
2022/07/20 09:36:30;;;;;;;27.38;16.98;;;27.70;89.30;;;;;;4969401;28;20038;-61
2022/07/20 09:39:22;;;;;;;19.30;15.25;;;27.70;88.80;;;;;;4968103;28;20549;-60
2022/07/20 09:41:58;;;;;;;19.38;15.60;;;27.60;88.00;;;;;;4965958;28;20509;-61
2022/07/20 09:44:27;;;;;;;23.55;16.73;;;27.70;89.30;;;;;;4976093;28;20118;-61
2022/07/20 09:46:54;;;;;;;21.00;15.43;;;27.70;89.20;;;;;;4975286;28;20551;-61
2022/07/20 09:49:23;;;;;;;23.60;15.63;;;28.00;89.90;;;;;;4967567;28;20293;-60
2022/07/20 09:51:58;;;;;;;20.52;14.43;;;28.20;89.90;;;;;;4949575;28;20105;-59
2022/07/20 09:54:24;;;;;;;20.65;12.85;;;28.30;87.10;;;;;;4996587;28;20039;-59
2022/07/20 09:56:51;;;;;;;17.52;11.40;;;28.40;83.70;;;;;;4961358;28;20570;-61
2022/07/20 09:59:18;;;;;;;16.63;11.23;;;28.40;82.30;;;;;;4986058;28;20095;-60
2022/07/20 10:01:47;;;;;;;22.75;11.43;;;28.40;81.90;;;;;;4987217;28;20372;-61
2022/07/20 10:04:14;;;;;;;16.35;11.05;;;28.30;81.50;;;;;;4969163;28;20575;-60
2022/07/20 10:06:43;;;;;;;14.73;11.07;;;28.20;81.50;;;;;;4976265;28;20042;-61
2022/07/20 10:09:10;;;;;;;17.77;11.05;;;28.30;80.90;;;;;;5040558;28;20078;-61
2022/07/20 10:11:36;;;;;;;16.23;11.13;;;28.40;81.20;;;;;;4970889;28;20039;-60
2022/07/20 10:14:04;;;;;;;17.70;11.98;;;28.60;81.20;;;;;;4982294;28;20043;-60
2022/07/20 10:16:30;;;;;;;19.80;12.45;;;28.60;80.80;;;;;;4968413;28;20047;-61
2022/07/20 10:18:56;;;;;;;16.60;11.23;;;28.70;80.90;;;;;;4979682;28;20041;-59
2022/07/20 10:21:42;;;;;;;19.52;11.77;;;28.70;80.60;;;;;;4971159;28;20053;-61
2022/07/20 10:24:27;;;;;;;18.63;12.30;;;28.70;80.30;;;;;;4960734;28;20100;-59
2022/07/20 10:27:08;;;;;;;18.55;11.70;;;28.70;80.30;;;;;;4949209;28;20394;-59
2022/07/20 10:29:54;;;;;;;17.38;10.93;;;28.70;80.40;;;;;;4970310;28;20077;-59
2022/07/20 10:32:30;;;;;;;18.00;11.80;;;28.70;79.40;;;;;;4968042;28;20130;-59
2022/07/20 10:34:58;;;;;;;17.20;11.02;;;28.90;80.20;;;;;;4981462;28;20031;-60
2022/07/20 10:37:37;;;;;;;17.20;11.43;;;28.90;78.90;;;;;;4981087;28;20115;-60
2022/07/20 10:40:13;;;;;;;14.70;11.48;;;29.00;79.00;;;;;;4973305;28;20035;-60
2022/07/20 10:42:40;;;;;;;16.70;11.88;;;28.80;78.50;;;;;;4973261;28;20035;-60
2022/07/20 10:45:25;;;;;;;17.33;11.27;;;28.90;77.80;;;;;;5044722;28;20032;-59
2022/07/20 10:48:04;;;;;;;14.88;11.45;;;29.20;77.10;;;;;;4987983;28;20043;-60
2022/07/20 10:50:55;;;;;;;15.73;11.05;;;28.60;75.00;;;;;;4977768;28;20069;-61
2022/07/20 10:53:23;;;;;;;16.25;9.98;;;28.70;76.80;;;;;;4990586;28;20053;-60
2022/07/20 10:55:55;;;;;;;15.30;9.75;;;28.80;75.50;;;;;;4972246;28;20061;-61
2022/07/20 10:58:24;;;;;;;13.70;9.18;;;28.90;75.60;;;;;;4971353;28;20042;-60
2022/07/20 11:00:53;;;;;;;16.60;9.32;;;29.10;75.80;;;;;;4970917;28;20046;-60
2022/07/20 11:03:27;;;;;;;16.48;8.80;;;29.00;75.40;;;;;;4979945;28;20042;-58
2022/07/20 11:06:20;;;;;;;18.25;8.77;;;29.20;74.90;;;;;;4974398;28;20042;-61
2022/07/20 11:08:57;;;;;;;13.13;8.73;;;29.20;74.20;;;;;;4957393;28;20125;-61
2022/07/20 11:11:29;;;;;;;11.32;8.55;;;29.20;73.00;;;;;;4972111;28;20456;-60
2022/07/20 11:13:55;;;;;;;14.88;8.90;;;29.00;73.00;;;;;;4971111;28;20337;-61
2022/07/20 11:16:23;;;;;;;14.07;9.38;;;29.10;73.50;;;;;;4972634;28;20489;-61
2022/07/20 11:18:50;;;;;;;16.17;9.90;;;28.80;74.30;;;;;;4984368;28;20062;-61
2022/07/20 11:21:16;;;;;;;18.23;10.25;;;28.90;74.70;;;;;;4973270;28;20058;-61
2022/07/20 11:23:48;;;;;;;13.07;9.52;;;28.90;74.60;;;;;;4990232;28;20069;-60
2022/07/20 11:26:16;;;;;;;12.95;8.95;;;29.00;72.10;;;;;;4976360;28;20272;-60
2022/07/20 11:28:48;;;;;;;12.82;8.10;;;28.80;71.20;;;;;;4990198;28;20039;-59
2022/07/20 11:31:16;;;;;;;14.18;9.23;;;28.80;72.90;;;;;;4975171;28;20070;-61
2022/07/20 11:33:45;;;;;;;15.70;9.32;;;28.90;73.30;;;;;;4974071;28;20035;-60
2022/07/20 11:36:20;;;;;;;13.23;9.27;;;29.00;73.60;;;;;;4968755;28;20043;-59
2022/07/20 11:38:53;;;;;;;13.93;8.65;;;29.20;72.40;;;;;;4934597;28;20043;-60
2022/07/20 11:41:40;;;;;;;12.15;8.68;;;29.40;73.20;;;;;;4951642;28;20043;-59
2022/07/20 11:44:13;;;;;;;10.93;8.35;;;29.80;72.60;;;;;;4960346;28;20042;-60
2022/07/20 11:46:41;;;;;;;12.77;8.23;;;30.00;72.70;;;;;;4989930;28;20106;-60
2022/07/20 11:49:09;;;;;;;13.23;9.07;;;30.20;73.10;;;;;;4989536;28;20046;-59
2022/07/20 11:51:36;;;;;;;14.90;9.85;;;30.20;72.00;;;;;;4987753;28;20077;-60
2022/07/20 11:54:06;;;;;;;15.02;10.48;;;30.20;71.40;;;;;;4980794;28;20458;-60
2022/07/20 11:56:35;;;;;;;14.40;10.45;;;30.10;71.30;;;;;;4971504;28;20047;-60
2022/07/20 11:59:02;;;;;;;12.50;10.60;;;30.00;70.90;;;;;;4985442;28;20043;-60
2022/07/20 12:01:36;;;;;;;16.20;11.15;;;30.00;69.70;;;;;;4988559;28;20493;-61
2022/07/20 12:04:04;;;;;;;13.77;10.70;;;29.70;68.40;;;;;;4973064;28;20065;-60
2022/07/20 12:06:32;;;;;;;13.85;9.27;;;29.60;69.00;;;;;;4970290;28;20043;-60
2022/07/20 12:09:18;;;;;;;12.73;9.43;;;29.60;70.20;;;;;;4970555;28;20115;-60
2022/07/20 12:12:02;;;;;;;14.00;9.05;;;29.90;69.40;;;;;;4978310;28;20045;-60
2022/07/20 12:14:36;;;;;;;15.32;8.27;;;30.00;68.70;;;;;;4986359;28;20038;-60
2022/07/20 12:17:21;;;;;;;14.48;8.43;;;30.00;68.00;;;;;;4970157;28;20494;-60
2022/07/20 12:19:50;;;;;;;9.20;7.65;;;29.80;68.50;;;;;;4988027;28;20095;-60
2022/07/20 12:22:22;;;;;;;14.07;8.13;;;30.10;68.40;;;;;;4988274;28;20378;-60
2022/07/20 12:24:56;;;;;;;11.50;7.68;;;30.10;67.70;;;;;;4985891;28;20042;-59
2022/07/20 12:27:25;;;;;;;9.82;8.18;;;30.30;67.20;;;;;;4986010;28;20042;-60
2022/07/20 12:29:52;;;;;;;13.27;8.55;;;30.40;68.30;;;;;;5004200;28;20500;-61
2022/07/20 12:32:28;;;;;;;12.80;8.40;;;30.60;67.00;;;;;;4972324;28;20047;-60
2022/07/20 12:34:55;;;;;;;11.00;8.13;;;30.80;66.50;;;;;;4969682;28;20112;-60
2022/07/20 12:37:22;;;;;;;13.93;7.68;;;30.70;66.50;;;;;;5034790;23;20131;-60
2022/07/20 12:39:57;;;;;;;14.00;7.88;;;30.50;62.90;;;;;;5028876;28;20033;-60
2022/07/20 12:42:24;;;;;;;11.73;7.65;;;30.20;64.80;;;;;;5033844;28;20056;-60
2022/07/20 12:45:03;;;;;;;11.30;7.43;;;30.30;66.30;;;;;;5027507;28;20432;-60
2022/07/20 12:47:29;;;;;;;9.52;7.00;;;30.10;64.40;;;;;;5026340;28;20038;-60